sensor_id;sensor_type;location;lat;lon;timestamp;pressure;altitude;pressure_sealevel;temperature;humidity
58955;BME280;45815;52.334;5.024;2023-02-17T00:00:58;101906.59;;;9.52;100.00
58955;BME280;45815;52.334;5.024;2023-02-17T00:03:23;101903.09;;;9.52;100.00
58955;BME280;45815;52.334;5.024;2023-02-17T00:05:49;101903.09;;;9.52;100.00
58955;BME280;45815;52.334;5.024;2023-02-17T00:08:15;101909.22;;;9.52;100.00
58955;BME280;45815;52.334;5.024;2023-02-17T00:10:40;101904.72;;;9.48;100.00
58955;BME280;45815;52.334;5.024;2023-02-17T00:13:06;101917.25;;;9.57;100.00
58955;BME280;45815;52.334;5.024;2023-02-17T00:15:31;101914.59;;;9.56;100.00
58955;BME280;45815;52.334;5.024;2023-02-17T00:17:57;101909.22;;;9.52;100.00
58955;BME280;45815;52.334;5.024;2023-02-17T00:20:22;101917.06;;;9.52;100.00
58955;BME280;45815;52.334;5.024;2023-02-17T00:22:47;101916.16;;;9.50;100.00
58955;BME280;45815;52.334;5.024;2023-02-17T00:25:13;101889.56;;;9.41;100.00
58955;BME280;45815;52.334;5.024;2023-02-17T00:27:38;101911.03;;;9.54;100.00
58955;BME280;45815;52.334;5.024;2023-02-17T00:30:05;101910.25;;;9.56;100.00
58955;BME280;45815;52.334;5.024;2023-02-17T00:32:31;101918.03;;;9.55;100.00
58955;BME280;45815;52.334;5.024;2023-02-17T00:34:56;101905.91;;;9.57;100.00
58955;BME280;45815;52.334;5.024;2023-02-17T00:37:23;101898.09;;;9.58;100.00
58955;BME280;45815;52.334;5.024;2023-02-17T00:39:49;101890.06;;;9.54;100.00
58955;BME280;45815;52.334;5.024;2023-02-17T00:42:17;101898.09;;;9.58;100.00
58955;BME280;45815;52.334;5.024;2023-02-17T00:44:42;101893.50;;;9.52;100.00
58955;BME280;45815;52.334;5.024;2023-02-17T00:47:08;101896.09;;;9.52;100.00
58955;BME280;45815;52.334;5.024;2023-02-17T00:49:33;101888.41;;;9.56;100.00
58955;BME280;45815;52.334;5.024;2023-02-17T00:51:59;101891.81;;;9.55;100.00
58955;BME280;45815;52.334;5.024;2023-02-17T00:54:26;101867.94;;;9.47;100.00
58955;BME280;45815;52.334;5.024;2023-02-17T00:56:51;101887.47;;;9.55;100.00
58955;BME280;45815;52.334;5.024;2023-02-17T00:59:17;101888.97;;;9.48;100.00
58955;BME280;45815;52.334;5.024;2023-02-17T01:01:42;101895.81;;;9.45;100.00
58955;BME280;45815;52.334;5.024;2023-02-17T01:04:08;101904.75;;;9.50;100.00
58955;BME280;45815;52.334;5.024;2023-02-17T01:06:36;101897.84;;;9.52;100.00
58955;BME280;45815;52.334;5.024;2023-02-17T01:09:03;101888.84;;;9.45;100.00
58955;BME280;45815;52.334;5.024;2023-02-17T01:11:31;101885.50;;;9.49;100.00
58955;BME280;45815;52.334;5.024;2023-02-17T01:13:58;101885.31;;;9.45;100.00
58955;BME280;45815;52.334;5.024;2023-02-17T01:16:36;101892.03;;;9.38;100.00
58955;BME280;45815;52.334;5.024;2023-02-17T01:19:05;101893.97;;;9.42;100.00
58955;BME280;45815;52.334;5.024;2023-02-17T01:21:32;101879.66;;;9.34;100.00
58955;BME280;45815;52.334;5.024;2023-02-17T01:24:00;101884.31;;;9.41;100.00
58955;BME280;45815;52.334;5.024;2023-02-17T01:26:29;101878.94;;;9.38;100.00
58955;BME280;45815;52.334;5.024;2023-02-17T01:28:55;101869.88;;;9.30;100.00
58955;BME280;45815;52.334;5.024;2023-02-17T01:31:22;101884.13;;;9.37;100.00
58955;BME280;45815;52.334;5.024;2023-02-17T01:33:48;101888.34;;;9.33;100.00
58955;BME280;45815;52.334;5.024;2023-02-17T01:36:16;101889.31;;;9.35;100.00
58955;BME280;45815;52.334;5.024;2023-02-17T01:38:41;101889.03;;;9.29;100.00
58955;BME280;45815;52.334;5.024;2023-02-17T01:41:08;101901.06;;;9.24;100.00
58955;BME280;45815;52.334;5.024;2023-02-17T01:43:34;101891.47;;;9.24;100.00
58955;BME280;45815;52.334;5.024;2023-02-17T01:46:02;101893.09;;;9.21;100.00
58955;BME280;45815;52.334;5.024;2023-02-17T01:48:41;101867.31;;;9.11;100.00
58955;BME280;45815;52.334;5.024;2023-02-17T01:51:10;101879.72;;;9.15;100.00
58955;BME280;45815;52.334;5.024;2023-02-17T01:53:56;101864.97;;;9.17;100.00
58955;BME280;45815;52.334;5.024;2023-02-17T01:56:22;101867.72;;;9.20;100.00
58955;BME280;45815;52.334;5.024;2023-02-17T01:58:53;101863.97;;;9.13;100.00
58955;BME280;45815;52.334;5.024;2023-02-17T02:01:19;101854.97;;;9.06;100.00
58955;BME280;45815;52.334;5.024;2023-02-17T02:03:46;101857.78;;;9.11;100.00
58955;BME280;45815;52.334;5.024;2023-02-17T02:06:15;101841.03;;;9.07;100.00
58955;BME280;45815;52.334;5.024;2023-02-17T02:08:55;101839.88;;;9.01;100.00
58955;BME280;45815;52.334;5.024;2023-02-17T02:11:21;101846.03;;;9.01;100.00
58955;BME280;45815;52.334;5.024;2023-02-17T02:13:47;101833.84;;;9.03;100.00
58955;BME280;45815;52.334;5.024;2023-02-17T02:19:08;101826.47;;;8.93;100.00
58955;BME280;45815;52.334;5.024;2023-02-17T02:24:32;101826.19;;;8.87;100.00
58955;BME280;45815;52.334;5.024;2023-02-17T02:34:36;101828.38;;;8.76;100.00
58955;BME280;45815;52.334;5.024;2023-02-17T02:39:45;101838.28;;;8.83;100.00
58955;BME280;45815;52.334;5.024;2023-02-17T02:42:13;101805.84;;;8.80;100.00
58955;BME280;45815;52.334;5.024;2023-02-17T02:44:40;101818.22;;;8.84;100.00
58955;BME280;45815;52.334;5.024;2023-02-17T02:50:11;101806.94;;;8.85;100.00
58955;BME280;45815;52.334;5.024;2023-02-17T02:59:01;101810.56;;;8.68;100.00
58955;BME280;45815;52.334;5.024;2023-02-17T03:01:44;101820.16;;;8.67;100.00
58955;BME280;45815;52.334;5.024;2023-02-17T03:04:32;101814.06;;;8.68;100.00
58955;BME280;45815;52.334;5.024;2023-02-17T03:09:30;101799.41;;;8.72;100.00
58955;BME280;45815;52.334;5.024;2023-02-17T03:11:57;101795.06;;;8.72;100.00
58955;BME280;45815;52.334;5.024;2023-02-17T03:14:25;101787.09;;;8.69;100.00
58955;BME280;45815;52.334;5.024;2023-02-17T03:16:53;101778.56;;;8.75;100.00
58955;BME280;45815;52.334;5.024;2023-02-17T03:19:21;101777.69;;;8.74;100.00
58955;BME280;45815;52.334;5.024;2023-02-17T03:21:52;101769.75;;;8.73;100.00
58955;BME280;45815;52.334;5.024;2023-02-17T03:24:19;101764.53;;;8.73;100.00
58955;BME280;45815;52.334;5.024;2023-02-17T03:26:44;101760.19;;;8.73;100.00
58955;BME280;45815;52.334;5.024;2023-02-17T03:29:10;101759.44;;;8.76;100.00
58955;BME280;45815;52.334;5.024;2023-02-17T03:31:36;101748.97;;;8.76;100.00
58955;BME280;45815;52.334;5.024;2023-02-17T03:34:01;101745.13;;;8.68;100.00
58955;BME280;45815;52.334;5.024;2023-02-17T03:36:27;101753.16;;;8.72;100.00
58955;BME280;45815;52.334;5.024;2023-02-17T03:38:54;101751.13;;;8.65;100.00
58955;BME280;45815;52.334;5.024;2023-02-17T03:41:20;101771.41;;;8.71;100.00
58955;BME280;45815;52.334;5.024;2023-02-17T03:43:45;101773.22;;;8.72;100.00
58955;BME280;45815;52.334;5.024;2023-02-17T03:46:14;101760.19;;;8.73;100.00
58955;BME280;45815;52.334;5.024;2023-02-17T03:48:40;101756.38;;;8.65;100.00
58955;BME280;45815;52.334;5.024;2023-02-17T03:51:14;101756.44;;;8.66;100.00
58955;BME280;45815;52.334;5.024;2023-02-17T03:53:40;101754.78;;;8.69;100.00
58955;BME280;45815;52.334;5.024;2023-02-17T03:56:06;101760.84;;;8.68;100.00
58955;BME280;45815;52.334;5.024;2023-02-17T03:58:32;101763.63;;;8.72;100.00
58955;BME280;45815;52.334;5.024;2023-02-17T04:00:58;101768.00;;;8.72;100.00
58955;BME280;45815;52.334;5.024;2023-02-17T04:03:23;101765.19;;;8.67;100.00
58955;BME280;45815;52.334;5.024;2023-02-17T04:05:49;101768.75;;;8.69;100.00
58955;BME280;45815;52.334;5.024;2023-02-17T04:08:19;101756.38;;;8.65;100.00
58955;BME280;45815;52.334;5.024;2023-02-17T04:10:45;101781.13;;;8.73;100.00
58955;BME280;45815;52.334;5.024;2023-02-17T04:13:10;101782.03;;;8.74;100.00
58955;BME280;45815;52.334;5.024;2023-02-17T04:15:36;101781.19;;;8.75;100.00
58955;BME280;45815;52.334;5.024;2023-02-17T04:18:01;101775.16;;;8.76;100.00
58955;BME280;45815;52.334;5.024;2023-02-17T04:20:27;101768.09;;;8.75;100.00
58955;BME280;45815;52.334;5.024;2023-02-17T04:22:52;101765.41;;;8.73;100.00
58955;BME280;45815;52.334;5.024;2023-02-17T04:25:17;101752.66;;;8.81;100.00
58955;BME280;45815;52.334;5.024;2023-02-17T04:27:43;101755.28;;;8.81;100.00
58955;BME280;45815;52.334;5.024;2023-02-17T04:30:09;101756.25;;;8.83;100.00
58955;BME280;45815;52.334;5.024;2023-02-17T04:32:34;101755.41;;;8.84;100.00
58955;BME280;45815;52.334;5.024;2023-02-17T04:35:00;101753.81;;;8.87;100.00
58955;BME280;45815;52.334;5.024;2023-02-17T04:37:25;101748.44;;;8.84;100.00
58955;BME280;45815;52.334;5.024;2023-02-17T04:39:50;101733.75;;;8.88;100.00
58955;BME280;45815;52.334;5.024;2023-02-17T04:42:16;101740.75;;;8.89;100.00
58955;BME280;45815;52.334;5.024;2023-02-17T04:44:41;101744.34;;;8.91;100.00
58955;BME280;45815;52.334;5.024;2023-02-17T04:47:07;101739.22;;;8.94;100.00
58955;BME280;45815;52.334;5.024;2023-02-17T04:49:32;101741.91;;;8.96;100.00
58955;BME280;45815;52.334;5.024;2023-02-17T04:51:57;101748.03;;;8.96;100.00
58955;BME280;45815;52.334;5.024;2023-02-17T04:54:23;101752.69;;;9.03;100.00
58955;BME280;45815;52.334;5.024;2023-02-17T04:56:48;101757.69;;;8.97;100.00
58955;BME280;45815;52.334;5.024;2023-02-17T04:59:14;101757.88;;;9.02;100.00
58955;BME280;45815;52.334;5.024;2023-02-17T05:01:39;101765.84;;;9.05;100.00
58955;BME280;45815;52.334;5.024;2023-02-17T05:04:04;101756.91;;;9.00;100.00
58955;BME280;45815;52.334;5.024;2023-02-17T05:06:30;101756.22;;;9.04;100.00
58955;BME280;45815;52.334;5.024;2023-02-17T05:08:55;101759.84;;;9.07;100.00
58955;BME280;45815;52.334;5.024;2023-02-17T05:11:21;101756.50;;;9.12;100.00
58955;BME280;45815;52.334;5.024;2023-02-17T05:13:46;101756.50;;;9.12;100.00
58955;BME280;45815;52.334;5.024;2023-02-17T05:16:12;101745.19;;;9.13;100.00
58955;BME280;45815;52.334;5.024;2023-02-17T05:18:37;101753.88;;;9.12;100.00
58955;BME280;45815;52.334;5.024;2023-02-17T05:21:03;101736.84;;;9.00;100.00
58955;BME280;45815;52.334;5.024;2023-02-17T05:23:28;101751.88;;;9.04;100.00
58955;BME280;45815;52.334;5.024;2023-02-17T05:25:54;101746.84;;;9.11;100.00
58955;BME280;45815;52.334;5.024;2023-02-17T05:28:19;101740.91;;;9.15;100.00
58955;BME280;45815;52.334;5.024;2023-02-17T05:30:47;101725.91;;;9.11;100.00
58955;BME280;45815;52.334;5.024;2023-02-17T05:33:13;101729.47;;;9.13;100.00
58955;BME280;45815;52.334;5.024;2023-02-17T05:35:39;101728.50;;;9.11;100.00
58955;BME280;45815;52.334;5.024;2023-02-17T05:38:04;101725.09;;;9.12;100.00
58955;BME280;45815;52.334;5.024;2023-02-17T05:40:31;101720.91;;;9.17;100.00
58955;BME280;45815;52.334;5.024;2023-02-17T05:42:56;101722.72;;;9.18;100.00
58955;BME280;45815;52.334;5.024;2023-02-17T05:45:21;101728.94;;;9.21;100.00
58955;BME280;45815;52.334;5.024;2023-02-17T05:47:47;101709.75;;;9.22;100.00
58955;BME280;45815;52.334;5.024;2023-02-17T05:50:12;101732.53;;;9.23;100.00
58955;BME280;45815;52.334;5.024;2023-02-17T05:52:38;101730.09;;;9.28;100.00
58955;BME280;45815;52.334;5.024;2023-02-17T05:55:04;101724.94;;;9.31;100.00
58955;BME280;45815;52.334;5.024;2023-02-17T05:57:29;101729.38;;;9.32;100.00
58955;BME280;45815;52.334;5.024;2023-02-17T05:59:55;101738.00;;;9.29;100.00
58955;BME280;45815;52.334;5.024;2023-02-17T06:02:20;101733.88;;;9.36;100.00
58955;BME280;45815;52.334;5.024;2023-02-17T06:04:46;101728.53;;;9.33;100.00
58955;BME280;45815;52.334;5.024;2023-02-17T06:07:11;101728.53;;;9.33;100.00
58955;BME280;45815;52.334;5.024;2023-02-17T06:09:37;101716.28;;;9.32;100.00
58955;BME280;45815;52.334;5.024;2023-02-17T06:12:02;101714.72;;;9.37;100.00
58955;BME280;45815;52.334;5.024;2023-02-17T06:14:28;101709.50;;;9.39;100.00
58955;BME280;45815;52.334;5.024;2023-02-17T06:16:53;101709.59;;;9.40;100.00
58955;BME280;45815;52.334;5.024;2023-02-17T06:19:21;101713.94;;;9.40;100.00
58955;BME280;45815;52.334;5.024;2023-02-17T06:21:46;101712.44;;;9.46;100.00
58955;BME280;45815;52.334;5.024;2023-02-17T06:24:12;101699.34;;;9.46;100.00
58955;BME280;45815;52.334;5.024;2023-02-17T06:26:37;101696.94;;;9.52;100.00
58955;BME280;45815;52.334;5.024;2023-02-17T06:29:02;101704.69;;;9.49;100.00
58955;BME280;45815;52.334;5.024;2023-02-17T06:31:28;101703.97;;;9.54;100.00
58955;BME280;45815;52.334;5.024;2023-02-17T06:33:54;101708.38;;;9.55;100.00
58955;BME280;45815;52.334;5.024;2023-02-17T06:36:19;101685.38;;;9.47;100.00
58955;BME280;45815;52.334;5.024;2023-02-17T06:38:44;101691.13;;;9.61;100.00
58955;BME280;45815;52.334;5.024;2023-02-17T06:41:10;101688.59;;;9.63;100.00
58955;BME280;45815;52.334;5.024;2023-02-17T06:43:35;101687.88;;;9.67;100.00
58955;BME280;45815;52.334;5.024;2023-02-17T06:46:01;101686.16;;;9.69;100.00
58955;BME280;45815;52.334;5.024;2023-02-17T06:48:26;101670.34;;;9.66;100.00
58955;BME280;45815;52.334;5.024;2023-02-17T06:50:52;101680.22;;;9.73;100.00
58955;BME280;45815;52.334;5.024;2023-02-17T06:53:17;101674.16;;;9.74;100.00
58955;BME280;45815;52.334;5.024;2023-02-17T06:55:43;101697.06;;;9.80;100.00
58955;BME280;45815;52.334;5.024;2023-02-17T06:58:09;101698.78;;;9.79;100.00
58955;BME280;45815;52.334;5.024;2023-02-17T07:00:34;101702.38;;;9.81;100.00
58955;BME280;45815;52.334;5.024;2023-02-17T07:02:59;101699.34;;;9.70;100.00
58955;BME280;45815;52.334;5.024;2023-02-17T07:05:25;101709.38;;;9.82;100.00
58955;BME280;45815;52.334;5.024;2023-02-17T07:07:50;101719.78;;;9.79;100.00
58955;BME280;45815;52.334;5.024;2023-02-17T07:10:17;101712.94;;;9.84;100.00
58955;BME280;45815;52.334;5.024;2023-02-17T07:12:43;101695.56;;;9.86;100.00
58955;BME280;45815;52.334;5.024;2023-02-17T07:15:08;101687.78;;;9.89;100.00
58955;BME280;45815;52.334;5.024;2023-02-17T07:17:34;101677.91;;;9.82;100.00
58955;BME280;45815;52.334;5.024;2023-02-17T07:19:59;101690.41;;;9.89;100.00
58955;BME280;45815;52.334;5.024;2023-02-17T07:22:25;101695.88;;;9.96;100.00
58955;BME280;45815;52.334;5.024;2023-02-17T07:24:51;101683.59;;;9.94;100.00
58955;BME280;45815;52.334;5.024;2023-02-17T07:27:16;101671.00;;;9.84;100.00
58955;BME280;45815;52.334;5.024;2023-02-17T07:29:41;101684.19;;;9.86;100.00
58955;BME280;45815;52.334;5.024;2023-02-17T07:32:07;101679.09;;;9.90;100.00
58955;BME280;45815;52.334;5.024;2023-02-17T07:34:32;101672.91;;;9.88;100.00
58955;BME280;45815;52.334;5.024;2023-02-17T07:36:58;101686.19;;;9.93;100.00
58955;BME280;45815;52.334;5.024;2023-02-17T07:39:23;101678.25;;;9.91;100.00
58955;BME280;45815;52.334;5.024;2023-02-17T07:41:49;101679.91;;;9.89;100.00
58955;BME280;45815;52.334;5.024;2023-02-17T07:44:16;101653.06;;;9.97;100.00
58955;BME280;45815;52.334;5.024;2023-02-17T07:46:42;101663.53;;;9.95;100.00
58955;BME280;45815;52.334;5.024;2023-02-17T07:49:08;101674.91;;;9.96;100.00
58955;BME280;45815;52.334;5.024;2023-02-17T07:51:33;101690.72;;;9.99;100.00
58955;BME280;45815;52.334;5.024;2023-02-17T07:54:00;101681.97;;;9.98;100.00
58955;BME280;45815;52.334;5.024;2023-02-17T07:56:25;101695.88;;;9.96;100.00
58955;BME280;45815;52.334;5.024;2023-02-17T07:58:51;101702.16;;;10.01;100.00
58955;BME280;45815;52.334;5.024;2023-02-17T08:01:20;101706.63;;;10.03;100.00
58955;BME280;45815;52.334;5.024;2023-02-17T08:03:46;101706.69;;;10.05;100.00
58955;BME280;45815;52.334;5.024;2023-02-17T08:06:14;101700.59;;;10.06;100.00
58955;BME280;45815;52.334;5.024;2023-02-17T08:08:40;101713.66;;;10.04;100.00
58955;BME280;45815;52.334;5.024;2023-02-17T08:11:25;101722.38;;;10.03;100.00
58955;BME280;45815;52.334;5.024;2023-02-17T08:14:09;101732.06;;;10.06;100.00
58955;BME280;45815;52.334;5.024;2023-02-17T08:16:34;101719.03;;;10.07;100.00
58955;BME280;45815;52.334;5.024;2023-02-17T08:19:00;101719.19;;;10.12;100.00
58955;BME280;45815;52.334;5.024;2023-02-17T08:21:26;101702.44;;;10.08;100.00
58955;BME280;45815;52.334;5.024;2023-02-17T08:23:52;101698.91;;;10.08;100.00
58955;BME280;45815;52.334;5.024;2023-02-17T08:26:18;101733.81;;;10.05;100.00
58955;BME280;45815;52.334;5.024;2023-02-17T08:28:44;101733.13;;;10.11;100.00
58955;BME280;45815;52.334;5.024;2023-02-17T08:31:31;101720.19;;;9.91;100.00
58955;BME280;45815;52.334;5.024;2023-02-17T08:33:59;101730.31;;;10.05;100.00
58955;BME280;45815;52.334;5.024;2023-02-17T08:36:25;101742.81;;;10.13;100.00
58955;BME280;45815;52.334;5.024;2023-02-17T08:38:52;101736.81;;;10.16;100.00
58955;BME280;45815;52.334;5.024;2023-02-17T08:41:34;101724.53;;;10.15;100.00
58955;BME280;45815;52.334;5.024;2023-02-17T08:44:03;101702.75;;;10.18;100.00
58955;BME280;45815;52.334;5.024;2023-02-17T08:46:31;101702.50;;;10.10;100.00
58955;BME280;45815;52.334;5.024;2023-02-17T08:48:57;101710.69;;;10.19;100.00
58955;BME280;45815;52.334;5.024;2023-02-17T08:51:23;101717.59;;;10.17;100.00
58955;BME280;45815;52.334;5.024;2023-02-17T08:53:52;101724.84;;;10.24;100.00
58955;BME280;45815;52.334;5.024;2023-02-17T08:56:19;101730.19;;;10.27;100.00
58955;BME280;45815;52.334;5.024;2023-02-17T08:58:44;101724.16;;;10.28;100.00
58955;BME280;45815;52.334;5.024;2023-02-17T09:01:10;101714.13;;;10.18;100.00
58955;BME280;45815;52.334;5.024;2023-02-17T09:03:37;101713.50;;;10.25;100.00
58955;BME280;45815;52.334;5.024;2023-02-17T09:06:03;101724.31;;;10.33;100.00
58955;BME280;45815;52.334;5.024;2023-02-17T09:08:29;101718.38;;;10.39;100.00
58955;BME280;45815;52.334;5.024;2023-02-17T09:10:55;101700.06;;;10.40;100.00
58955;BME280;45815;52.334;5.024;2023-02-17T09:13:20;101709.75;;;10.43;100.00
58955;BME280;45815;52.334;5.024;2023-02-17T09:15:46;101706.28;;;10.44;100.00
58955;BME280;45815;52.334;5.024;2023-02-17T09:18:11;101710.72;;;10.45;100.00
58955;BME280;45815;52.334;5.024;2023-02-17T09:20:37;101709.06;;;10.48;100.00
58955;BME280;45815;52.334;5.024;2023-02-17T09:23:04;101704.91;;;10.55;100.00
58955;BME280;45815;52.334;5.024;2023-02-17T09:25:29;101699.75;;;10.58;100.00
58955;BME280;45815;52.334;5.024;2023-02-17T09:27:55;101705.28;;;10.66;100.00
58955;BME280;45815;52.334;5.024;2023-02-17T09:30:20;101684.22;;;10.64;100.00
58955;BME280;45815;52.334;5.024;2023-02-17T09:32:46;101688.75;;;10.70;100.00
58955;BME280;45815;52.334;5.024;2023-02-17T09:35:14;101691.44;;;10.71;100.00
58955;BME280;45815;52.334;5.024;2023-02-17T09:37:39;101662.66;;;10.74;100.00
58955;BME280;45815;52.334;5.024;2023-02-17T09:40:06;101667.00;;;10.72;100.00
58955;BME280;45815;52.334;5.024;2023-02-17T09:42:36;101686.28;;;10.74;100.00
58955;BME280;45815;52.334;5.024;2023-02-17T09:45:06;101692.31;;;10.72;100.00
58955;BME280;45815;52.334;5.024;2023-02-17T09:47:39;101685.22;;;10.68;100.00
58955;BME280;45815;52.334;5.024;2023-02-17T09:50:09;101682.75;;;10.72;100.00
58955;BME280;45815;52.334;5.024;2023-02-17T09:53:00;101693.34;;;10.75;100.00
58955;BME280;45815;52.334;5.024;2023-02-17T09:55:44;101712.38;;;10.68;100.00
58955;BME280;45815;52.334;5.024;2023-02-17T10:00:43;101718.81;;;10.78;100.00
58955;BME280;45815;52.334;5.024;2023-02-17T10:06:14;101710.91;;;10.78;100.00
58955;BME280;45815;52.334;5.024;2023-02-17T10:08:55;101718.84;;;10.80;100.00
58955;BME280;45815;52.334;5.024;2023-02-17T10:11:35;101723.47;;;10.87;100.00
58955;BME280;45815;52.334;5.024;2023-02-17T10:14:13;101710.47;;;10.91;100.00
58955;BME280;45815;52.334;5.024;2023-02-17T10:19:37;101734.56;;;11.05;100.00
58955;BME280;45815;52.334;5.024;2023-02-17T10:22:13;101718.03;;;11.09;100.00
58955;BME280;45815;52.334;5.024;2023-02-17T10:24:40;101723.47;;;11.15;100.00
58955;BME280;45815;52.334;5.024;2023-02-17T10:32:37;101724.34;;;11.16;100.00
58955;BME280;45815;52.334;5.024;2023-02-17T10:35:15;101716.47;;;11.16;100.00
58955;BME280;45815;52.334;5.024;2023-02-17T10:37:44;101723.69;;;11.22;100.00
58955;BME280;45815;52.334;5.024;2023-02-17T10:40:20;101728.13;;;11.24;100.00
58955;BME280;45815;52.334;5.024;2023-02-17T10:42:49;101712.50;;;11.29;100.00
58955;BME280;45815;52.334;5.024;2023-02-17T10:45:31;101742.25;;;11.28;100.00
58955;BME280;45815;52.334;5.024;2023-02-17T10:48:02;101740.94;;;11.13;100.00
58955;BME280;45815;52.334;5.024;2023-02-17T10:50:31;101748.28;;;11.25;100.00
58955;BME280;45815;52.334;5.024;2023-02-17T10:52:56;101757.25;;;11.32;100.00
58955;BME280;45815;52.334;5.024;2023-02-17T10:57:58;101766.19;;;11.37;100.00
58955;BME280;45815;52.334;5.024;2023-02-17T11:00:26;101769.59;;;11.34;100.00
58955;BME280;45815;52.334;5.024;2023-02-17T11:02:52;101773.97;;;11.34;100.00
58955;BME280;45815;52.334;5.024;2023-02-17T11:05:27;101788.75;;;11.30;100.00
58955;BME280;45815;52.334;5.024;2023-02-17T11:08:02;101796.59;;;11.29;100.00
58955;BME280;45815;52.334;5.024;2023-02-17T11:10:36;101790.69;;;11.36;100.00
58955;BME280;45815;52.334;5.024;2023-02-17T11:13:27;101798.00;;;11.17;100.00
58955;BME280;45815;52.334;5.024;2023-02-17T11:15:55;101780.34;;;11.13;100.00
58955;BME280;45815;52.334;5.024;2023-02-17T11:18:27;101787.47;;;11.17;100.00
58955;BME280;45815;52.334;5.024;2023-02-17T11:21:19;101799.16;;;11.00;100.00
58955;BME280;45815;52.334;5.024;2023-02-17T11:23:48;101752.19;;;11.09;100.00
58955;BME280;45815;52.334;5.024;2023-02-17T11:26:21;101772.25;;;11.07;100.00
58955;BME280;45815;52.334;5.024;2023-02-17T11:28:50;101785.50;;;11.10;100.00
58955;BME280;45815;52.334;5.024;2023-02-17T11:31:27;101787.25;;;11.10;100.00
58955;BME280;45815;52.334;5.024;2023-02-17T11:33:52;101799.53;;;11.11;100.00
58955;BME280;45815;52.334;5.024;2023-02-17T11:36:28;101804.53;;;11.03;100.00
58955;BME280;45815;52.334;5.024;2023-02-17T11:38:54;101796.84;;;11.09;100.00
58955;BME280;45815;52.334;5.024;2023-02-17T11:41:20;101791.66;;;11.11;100.00
58955;BME280;45815;52.334;5.024;2023-02-17T11:43:57;101820.31;;;11.03;100.00
58955;BME280;45815;52.334;5.024;2023-02-17T11:46:57;101806.53;;;11.10;100.00
58955;BME280;45815;52.334;5.024;2023-02-17T11:57:47;101819.78;;;10.88;100.00
58955;BME280;45815;52.334;5.024;2023-02-17T12:00:29;101828.16;;;10.76;100.00
58955;BME280;45815;52.334;5.024;2023-02-17T12:09:02;101843.06;;;10.77;100.00
58955;BME280;45815;52.334;5.024;2023-02-17T12:14:40;101809.09;;;10.82;100.00
58955;BME280;45815;52.334;5.024;2023-02-17T12:20:00;101827.50;;;10.83;100.00
58955;BME280;45815;52.334;5.024;2023-02-17T12:23:01;101849.41;;;10.84;100.00
58955;BME280;45815;52.334;5.024;2023-02-17T12:25:43;101826.72;;;10.86;100.00
58955;BME280;45815;52.334;5.024;2023-02-17T12:28:47;101845.97;;;10.85;100.00
58955;BME280;45815;52.334;5.024;2023-02-17T12:31:35;101847.72;;;10.86;100.00
58955;BME280;45815;52.334;5.024;2023-02-17T12:34:14;101857.09;;;10.77;100.00
58955;BME280;45815;52.334;5.024;2023-02-17T12:36:43;101832.19;;;10.66;100.00
58955;BME280;45815;52.334;5.024;2023-02-17T12:39:14;101863.28;;;10.80;100.00
58955;BME280;45815;52.334;5.024;2023-02-17T12:41:57;101858.03;;;10.80;100.00
58955;BME280;45815;52.334;5.024;2023-02-17T12:44:30;101847.72;;;10.86;100.00
58955;BME280;45815;52.334;5.024;2023-02-17T12:47:21;101847.84;;;10.89;100.00
58955;BME280;45815;52.334;5.024;2023-02-17T12:50:18;101832.19;;;10.92;100.00
58955;BME280;45815;52.334;5.024;2023-02-17T12:52:47;101850.78;;;10.98;100.00
58955;BME280;45815;52.334;5.024;2023-02-17T12:55:20;101864.13;;;11.04;100.00
58955;BME280;45815;52.334;5.024;2023-02-17T12:57:56;101864.81;;;10.98;100.00
58955;BME280;45815;52.334;5.024;2023-02-17T13:00:41;101873.59;;;10.99;100.00
58955;BME280;45815;52.334;5.024;2023-02-17T13:03:07;101845.72;;;11.04;100.00
58955;BME280;45815;52.334;5.024;2023-02-17T13:05:41;101825.56;;;11.03;100.00
58955;BME280;45815;52.334;5.024;2023-02-17T13:08:19;101844.19;;;11.11;100.00
58955;BME280;45815;52.334;5.024;2023-02-17T13:10:46;101867.69;;;11.06;100.00
58955;BME280;45815;52.334;5.024;2023-02-17T13:13:27;101863.88;;;10.96;100.00
58955;BME280;45815;52.334;5.024;2023-02-17T13:16:20;101869.28;;;11.01;100.00
58955;BME280;45815;52.334;5.024;2023-02-17T13:18:47;101867.69;;;11.06;100.00
58955;BME280;45815;52.334;5.024;2023-02-17T13:26:31;101849.16;;;11.29;100.00
58955;BME280;45815;52.334;5.024;2023-02-17T13:31:57;101867.13;;;11.15;100.00
58955;BME280;45815;52.334;5.024;2023-02-17T13:34:41;101853.22;;;11.19;100.00
58955;BME280;45815;52.334;5.024;2023-02-17T13:37:44;101885.13;;;11.04;100.00
58955;BME280;45815;52.334;5.024;2023-02-17T13:40:32;101855.50;;;11.08;100.00
58955;BME280;45815;52.334;5.024;2023-02-17T13:43:28;101846.66;;;11.06;100.00
58955;BME280;45815;52.334;5.024;2023-02-17T13:46:02;101853.53;;;11.03;100.00
58955;BME280;45815;52.334;5.024;2023-02-17T13:48:33;101856.38;;;11.09;100.00
58955;BME280;45815;52.334;5.024;2023-02-17T13:51:01;101854.13;;;11.19;100.00
58955;BME280;45815;52.334;5.024;2023-02-17T13:53:35;101854.31;;;11.26;100.00
58955;BME280;45815;52.334;5.024;2023-02-17T13:56:10;101833.69;;;11.38;100.00
58955;BME280;45815;52.334;5.024;2023-02-17T13:58:40;101838.31;;;11.47;100.00
58955;BME280;45815;52.334;5.024;2023-02-17T14:01:14;101837.25;;;11.40;100.00
58955;BME280;45815;52.334;5.024;2023-02-17T14:03:44;101848.25;;;11.55;100.00
58955;BME280;45815;52.334;5.024;2023-02-17T14:06:27;101859.47;;;11.50;100.00
58955;BME280;45815;52.334;5.024;2023-02-17T14:08:54;101852.78;;;11.61;100.00